createdAt,value
2023-04-27T00:00:19.405Z,76.60
2023-04-27T00:01:21.501Z,76.73
2023-04-27T00:02:23.914Z,76.59
2023-04-27T00:03:26.646Z,76.53
2023-04-27T00:04:29.689Z,76.45
2023-04-27T00:05:36.193Z,76.28
2023-04-27T00:06:38.566Z,76.27
2023-04-27T00:07:40.646Z,76.35
2023-04-27T00:08:43.772Z,76.26
2023-04-27T00:09:46.212Z,76.11
2023-04-27T00:10:48.898Z,76.31
2023-04-27T00:11:51.086Z,76.30
2023-04-27T00:12:53.676Z,76.25
2023-04-27T00:13:56.144Z,76.37
2023-04-27T00:14:58.525Z,76.46
2023-04-27T00:16:00.875Z,76.48
2023-04-27T00:17:03.153Z,76.67
2023-04-27T00:18:05.933Z,76.31
2023-04-27T00:19:08.057Z,76.23
2023-04-27T00:20:11.457Z,76.30
2023-04-27T00:21:13.665Z,76.31
2023-04-27T00:22:16.239Z,76.32
2023-04-27T00:23:18.559Z,76.38
2023-04-27T00:24:20.728Z,76.40
2023-04-27T00:25:23.076Z,76.42
2023-04-27T00:26:25.321Z,76.52
2023-04-27T00:27:28.268Z,76.63
2023-04-27T00:28:31.109Z,76.79
2023-04-27T00:29:34.372Z,76.86
2023-04-27T00:30:36.706Z,76.84
2023-04-27T00:31:39.026Z,76.98
2023-04-27T00:32:41.250Z,77.10
2023-04-27T00:33:43.681Z,77.26
2023-04-27T00:34:45.904Z,77.28
2023-04-27T00:35:48.231Z,77.37
2023-04-27T00:36:50.589Z,77.30
2023-04-27T00:37:55.139Z,77.26
2023-04-27T00:38:57.885Z,77.27
2023-04-27T00:40:00.771Z,77.17
2023-04-27T00:41:04.370Z,77.08
2023-04-27T00:42:06.809Z,77.28
2023-04-27T00:43:09.076Z,77.23
2023-04-27T00:44:11.974Z,77.17
2023-04-27T00:45:14.115Z,77.21
2023-04-27T00:46:17.144Z,77.25
2023-04-27T00:47:19.559Z,77.28
2023-04-27T00:48:22.365Z,77.43
2023-04-27T00:49:26.672Z,77.63
2023-04-27T00:50:29.184Z,77.62
2023-04-27T00:51:31.786Z,77.64
2023-04-27T00:52:36.005Z,77.97
2023-04-27T00:53:38.695Z,77.85
2023-04-27T00:54:41.483Z,77.79
2023-04-27T00:55:43.666Z,77.72
2023-04-27T00:56:48.403Z,77.68
2023-04-27T00:57:50.787Z,77.83
2023-04-27T00:58:53.047Z,77.73
2023-04-27T00:59:55.430Z,77.72
2023-04-27T01:00:58.835Z,78.00
2023-04-27T01:02:01.376Z,78.20
2023-04-27T01:03:03.883Z,78.24
2023-04-27T01:04:06.820Z,78.13
2023-04-27T01:05:09.468Z,78.03
2023-04-27T01:06:12.541Z,78.02
2023-04-27T01:07:14.714Z,78.36
2023-04-27T01:08:16.982Z,78.51
2023-04-27T01:09:19.513Z,78.51
2023-04-27T01:10:24.192Z,78.43
2023-04-27T01:11:26.489Z,78.48
2023-04-27T01:12:28.800Z,78.64
2023-04-27T01:13:32.133Z,78.65
2023-04-27T01:14:36.230Z,78.59
2023-04-27T01:15:38.551Z,78.60
2023-04-27T01:16:42.728Z,78.44
2023-04-27T01:17:44.955Z,78.38
2023-04-27T01:18:47.372Z,78.19
2023-04-27T01:19:49.909Z,77.73
2023-04-27T01:20:52.363Z,77.37
2023-04-27T01:21:54.630Z,77.23
2023-04-27T01:22:59.508Z,76.98
2023-04-27T01:24:04.937Z,76.92
2023-04-27T01:25:07.832Z,76.85
2023-04-27T01:26:10.428Z,76.76
2023-04-27T01:27:12.691Z,76.65
2023-04-27T01:28:14.993Z,76.48
2023-04-27T01:29:17.497Z,76.48
2023-04-27T01:30:19.866Z,76.54
2023-04-27T01:31:22.183Z,76.37
2023-04-27T01:32:24.787Z,76.32
2023-04-27T01:33:27.970Z,76.28
2023-04-27T01:34:30.143Z,76.35
2023-04-27T01:35:32.330Z,76.45
2023-04-27T01:36:35.658Z,76.70
2023-04-27T01:37:37.919Z,76.54
2023-04-27T01:38:40.725Z,76.40
2023-04-27T01:39:43.385Z,76.43
2023-04-27T01:40:45.606Z,76.46
2023-04-27T01:41:48.639Z,76.60
2023-04-27T01:42:50.866Z,76.55
2023-04-27T01:43:53.172Z,76.50
2023-04-27T01:44:55.677Z,76.54
2023-04-27T01:46:09.548Z,76.59
2023-04-27T01:47:11.935Z,76.59
2023-04-27T01:48:15.872Z,76.59
2023-04-27T01:49:19.534Z,76.55
2023-04-27T01:50:21.813Z,76.58
2023-04-27T01:51:25.054Z,76.67
2023-04-27T01:52:27.268Z,76.67
2023-04-27T01:53:30.934Z,76.66
2023-04-27T01:54:33.234Z,76.68
2023-04-27T01:55:35.816Z,76.65
2023-04-27T01:56:38.332Z,76.56
2023-04-27T01:57:40.597Z,76.46
2023-04-27T01:58:42.758Z,76.42
2023-04-27T01:59:45.136Z,76.23
2023-04-27T02:00:47.390Z,76.22
2023-04-27T02:01:49.581Z,76.37
2023-04-27T02:02:52.749Z,76.58
2023-04-27T02:03:55.384Z,76.75
2023-04-27T02:04:58.529Z,76.88
2023-04-27T02:06:01.595Z,76.89
2023-04-27T02:07:04.369Z,76.79
2023-04-27T02:08:06.770Z,76.58
2023-04-27T02:09:09.012Z,76.50
2023-04-27T02:10:14.358Z,76.58
2023-04-27T02:11:16.505Z,76.41
2023-04-27T02:12:18.816Z,76.38
2023-04-27T02:13:21.009Z,76.34
2023-04-27T02:14:23.693Z,76.32
2023-04-27T02:15:26.507Z,76.35
2023-04-27T02:16:29.539Z,76.60
2023-04-27T02:17:34.249Z,76.73
2023-04-27T02:18:36.752Z,76.91
2023-04-27T02:19:39.009Z,76.88
2023-04-27T02:20:41.412Z,76.83
2023-04-27T02:21:43.659Z,76.85
2023-04-27T02:22:46.874Z,77.16
2023-04-27T02:23:49.186Z,77.18
2023-04-27T02:24:53.050Z,77.13
2023-04-27T02:25:56.180Z,77.23
2023-04-27T02:26:58.453Z,77.35
2023-04-27T02:28:00.489Z,77.30
2023-04-27T02:29:03.359Z,77.25
2023-04-27T02:30:10.663Z,77.26
2023-04-27T02:31:14.112Z,77.58
2023-04-27T02:32:16.427Z,77.59
2023-04-27T02:33:18.722Z,77.70
2023-04-27T02:34:21.853Z,77.68
2023-04-27T02:35:24.604Z,77.72
2023-04-27T02:36:26.877Z,77.85
2023-04-27T02:37:30.603Z,77.97
2023-04-27T02:38:32.855Z,77.92
2023-04-27T02:39:35.703Z,77.95
2023-04-27T02:40:38.133Z,77.84
2023-04-27T02:41:41.835Z,77.67
2023-04-27T02:42:44.518Z,77.62
2023-04-27T02:43:46.464Z,77.59
2023-04-27T02:44:48.768Z,77.58
2023-04-27T02:45:51.027Z,77.60
2023-04-27T02:46:53.394Z,77.65
2023-04-27T02:47:57.467Z,77.67
2023-04-27T02:48:59.583Z,77.68
2023-04-27T02:50:01.962Z,77.79
2023-04-27T02:51:06.123Z,77.98
2023-04-27T02:52:09.067Z,77.99
2023-04-27T02:53:11.681Z,77.99
2023-04-27T02:54:13.902Z,78.05
2023-04-27T02:55:16.236Z,77.82
2023-04-27T02:56:18.671Z,77.76
2023-04-27T02:57:20.981Z,77.61
2023-04-27T02:58:23.433Z,77.62
2023-04-27T02:59:25.603Z,77.63
2023-04-27T03:00:27.929Z,77.57
2023-04-27T03:01:29.994Z,77.51
2023-04-27T03:02:32.530Z,77.60
2023-04-27T03:03:35.078Z,77.77
2023-04-27T03:04:37.630Z,77.97
2023-04-27T03:05:39.926Z,78.14
2023-04-27T03:06:42.732Z,78.20
2023-04-27T03:07:44.873Z,78.18
2023-04-27T03:08:48.056Z,78.08
2023-04-27T03:09:50.187Z,77.92
2023-04-27T03:10:52.448Z,77.88
2023-04-27T03:11:54.633Z,77.79
2023-04-27T03:12:56.806Z,77.79
2023-04-27T03:13:58.971Z,77.93
2023-04-27T03:15:01.729Z,77.97
2023-04-27T03:16:04.003Z,77.97
2023-04-27T03:17:06.214Z,77.98
2023-04-27T03:18:08.567Z,77.93
2023-04-27T03:19:10.894Z,77.88
2023-04-27T03:20:13.425Z,77.89
2023-04-27T03:21:15.759Z,77.87
2023-04-27T03:22:17.916Z,77.87
2023-04-27T03:23:20.514Z,77.89
2023-04-27T03:24:22.620Z,78.14
2023-04-27T03:25:25.524Z,78.14
2023-04-27T03:26:27.855Z,78.35
2023-04-27T03:27:30.113Z,78.20
2023-04-27T03:28:32.366Z,78.09
2023-04-27T03:29:35.264Z,78.25
2023-04-27T03:30:39.127Z,78.28
2023-04-27T03:31:42.095Z,78.21
2023-04-27T03:32:46.341Z,78.15
2023-04-27T03:33:49.129Z,78.06
2023-04-27T03:34:51.306Z,77.96
2023-04-27T03:35:57.844Z,78.09
2023-04-27T03:37:01.640Z,78.06
2023-04-27T03:38:03.989Z,78.04
2023-04-27T03:39:07.042Z,78.18
2023-04-27T03:40:11.387Z,78.30
2023-04-27T03:41:13.851Z,78.51
2023-04-27T03:42:16.762Z,78.59
2023-04-27T03:43:20.920Z,78.49
2023-04-27T03:44:23.832Z,78.36
2023-04-27T03:45:26.999Z,78.39
2023-04-27T03:46:29.657Z,78.37
2023-04-27T03:47:32.453Z,78.35
2023-04-27T03:48:34.687Z,78.48
2023-04-27T03:49:36.891Z,78.54
2023-04-27T03:50:39.152Z,78.42
2023-04-27T03:51:41.419Z,78.23
2023-04-27T03:52:43.484Z,78.19
2023-04-27T03:53:45.856Z,78.07
2023-04-27T03:54:49.354Z,77.95
2023-04-27T03:55:53.434Z,78.01
2023-04-27T03:56:56.269Z,78.16
2023-04-27T03:57:59.062Z,78.17
2023-04-27T03:59:01.820Z,78.19
2023-04-27T04:00:10.203Z,78.15
2023-04-27T04:01:14.373Z,78.27
2023-04-27T04:02:17.063Z,78.32
2023-04-27T04:03:20.402Z,78.36
2023-04-27T04:04:23.481Z,78.23
2023-04-27T04:05:26.491Z,78.11
2023-04-27T04:06:30.434Z,78.03
2023-04-27T04:07:32.763Z,77.90
2023-04-27T04:08:35.445Z,77.87
2023-04-27T04:09:38.165Z,77.85
2023-04-27T04:10:41.127Z,78.00
2023-04-27T04:11:44.021Z,78.14
2023-04-27T04:12:47.940Z,78.04
2023-04-27T04:13:51.581Z,77.98
2023-04-27T04:14:54.133Z,78.17
2023-04-27T04:16:08.124Z,78.45
2023-04-27T04:17:11.444Z,78.79
2023-04-27T04:18:15.449Z,78.53
2023-04-27T04:19:17.611Z,78.65
2023-04-27T04:20:20.020Z,78.64
2023-04-27T04:21:22.738Z,78.64
2023-04-27T04:22:25.045Z,78.61
2023-04-27T04:23:27.428Z,78.42
2023-04-27T04:24:29.725Z,78.41
2023-04-27T04:25:31.946Z,78.36
2023-04-27T04:26:34.344Z,78.44
2023-04-27T04:27:37.104Z,78.50
2023-04-27T04:28:39.646Z,78.49
2023-04-27T04:29:42.870Z,78.41
2023-04-27T04:30:45.199Z,78.22
2023-04-27T04:31:47.987Z,78.14
2023-04-27T04:32:50.495Z,78.01
2023-04-27T04:33:53.653Z,77.98
2023-04-27T04:34:58.050Z,78.06
2023-04-27T04:36:05.287Z,78.07
2023-04-27T04:37:09.085Z,78.08
2023-04-27T04:38:12.634Z,78.00
2023-04-27T04:39:16.536Z,78.07
2023-04-27T04:40:19.379Z,78.09
2023-04-27T04:41:22.104Z,78.38
2023-04-27T04:42:24.341Z,78.35
2023-04-27T04:43:28.920Z,78.30
2023-04-27T04:44:31.090Z,78.26
2023-04-27T04:45:33.261Z,78.20
2023-04-27T04:46:36.350Z,78.17
2023-04-27T04:47:38.837Z,78.32
2023-04-27T04:48:41.073Z,78.27
2023-04-27T04:49:43.891Z,78.16
2023-04-27T04:50:46.796Z,78.16
2023-04-27T04:51:48.924Z,78.26
2023-04-27T04:52:51.618Z,78.22
2023-04-27T04:53:54.513Z,78.40
2023-04-27T04:54:58.109Z,78.53
2023-04-27T04:57:26.535Z,78.52
2023-04-27T04:58:29.121Z,78.74
2023-04-27T04:59:34.220Z,78.92
2023-04-27T05:00:36.652Z,78.84
2023-04-27T05:01:39.395Z,78.81
2023-04-27T05:02:41.985Z,78.74
2023-04-27T05:03:44.605Z,78.50
2023-04-27T05:04:47.903Z,78.55
2023-04-27T05:05:50.122Z,78.54
2023-04-27T05:06:52.296Z,78.50
2023-04-27T05:07:54.489Z,78.41
2023-04-27T05:08:57.208Z,78.48
2023-04-27T05:09:59.679Z,78.28
2023-04-27T05:11:01.868Z,78.15
2023-04-27T05:12:04.691Z,78.04
2023-04-27T05:13:07.284Z,78.17
2023-04-27T05:14:10.080Z,78.40
2023-04-27T05:15:12.605Z,78.66
2023-04-27T05:16:16.386Z,78.67
2023-04-27T05:17:18.765Z,78.56
2023-04-27T05:18:20.840Z,78.40
2023-04-27T05:19:23.044Z,78.28
2023-04-27T05:20:25.423Z,78.18
2023-04-27T05:21:27.676Z,78.10
2023-04-27T05:22:29.730Z,78.10
2023-04-27T05:23:31.821Z,78.20
2023-04-27T05:24:34.102Z,78.21
2023-04-27T05:25:36.384Z,78.29
2023-04-27T05:26:39.837Z,78.32
2023-04-27T05:27:42.376Z,78.16
2023-04-27T05:28:44.828Z,78.23
2023-04-27T05:29:46.922Z,78.27
2023-04-27T05:30:49.102Z,78.35
2023-04-27T05:31:51.354Z,78.46
2023-04-27T05:32:53.753Z,78.60
2023-04-27T05:33:56.038Z,78.60
2023-04-27T05:34:58.712Z,78.48
2023-04-27T05:36:01.273Z,78.52
2023-04-27T05:37:03.451Z,78.52
2023-04-27T05:38:05.609Z,78.45
2023-04-27T05:39:09.542Z,78.56
2023-04-27T05:40:12.075Z,78.26
2023-04-27T05:41:15.892Z,78.21
2023-04-27T05:42:18.121Z,78.18
2023-04-27T05:43:20.417Z,78.23
2023-04-27T05:44:22.574Z,78.21
2023-04-27T05:45:24.753Z,77.93
2023-04-27T05:46:27.095Z,77.82
2023-04-27T05:47:29.926Z,77.60
2023-04-27T05:48:32.586Z,77.60
2023-04-27T05:49:34.773Z,77.79
2023-04-27T05:50:37.615Z,77.99
2023-04-27T05:51:39.800Z,78.28
2023-04-27T05:52:42.008Z,78.28
2023-04-27T05:53:44.238Z,78.35
2023-04-27T05:54:47.584Z,78.22
2023-04-27T05:55:49.860Z,78.34
2023-04-27T05:56:52.530Z,78.48
2023-04-27T05:58:06.669Z,78.46
2023-04-27T05:59:01.227Z,78.57
2023-04-27T06:00:04.449Z,78.55
2023-04-27T06:01:08.636Z,78.69
2023-04-27T06:02:10.835Z,78.71
2023-04-27T06:03:13.552Z,78.50
2023-04-27T06:04:16.149Z,78.43
2023-04-27T06:05:18.579Z,78.36
2023-04-27T06:06:21.136Z,78.34
2023-04-27T06:07:23.305Z,78.37
2023-04-27T06:08:26.496Z,78.11
2023-04-27T06:09:30.607Z,78.02
2023-04-27T06:10:33.444Z,78.05
2023-04-27T06:11:35.720Z,78.06
2023-04-27T06:12:38.209Z,78.01
2023-04-27T06:13:40.370Z,77.85
2023-04-27T06:14:42.653Z,77.74
2023-04-27T06:15:44.996Z,77.81
2023-04-27T06:16:47.191Z,77.89
2023-04-27T06:17:49.953Z,77.97
2023-04-27T06:18:53.263Z,78.03
2023-04-27T06:19:55.552Z,78.10
2023-04-27T06:21:01.340Z,78.18
2023-04-27T06:22:03.547Z,78.23
2023-04-27T06:23:05.695Z,78.60
2023-04-27T06:24:07.913Z,78.73
2023-04-27T06:25:09.956Z,78.71
2023-04-27T06:26:12.966Z,79.02
2023-04-27T06:27:15.107Z,79.00
2023-04-27T06:28:17.039Z,78.83
2023-04-27T06:29:19.138Z,78.70
2023-04-27T06:30:22.611Z,78.61
2023-04-27T06:31:26.598Z,78.63
2023-04-27T06:32:28.953Z,78.59
2023-04-27T06:33:31.038Z,78.54
2023-04-27T06:34:33.693Z,78.45
2023-04-27T06:35:35.850Z,78.41
2023-04-27T06:36:38.587Z,78.32
2023-04-27T06:37:40.845Z,78.28
2023-04-27T06:38:43.478Z,78.55
2023-04-27T06:39:46.836Z,78.53
2023-04-27T06:40:52.519Z,78.56
2023-04-27T06:41:55.391Z,78.46
2023-04-27T06:42:59.816Z,78.38
2023-04-27T06:44:01.976Z,78.35
2023-04-27T06:45:04.604Z,78.33
2023-04-27T06:46:07.362Z,78.58
2023-04-27T06:47:09.991Z,78.68
2023-04-27T06:48:12.117Z,78.83
2023-04-27T06:49:14.447Z,78.94
2023-04-27T06:50:17.086Z,79.03
2023-04-27T06:51:19.303Z,78.97
2023-04-27T06:52:21.547Z,78.76
2023-04-27T06:53:24.013Z,78.75
2023-04-27T06:54:26.618Z,78.72
2023-04-27T06:55:28.807Z,78.73
2023-04-27T06:56:31.026Z,78.72
2023-04-27T06:57:33.373Z,78.73
2023-04-27T06:58:35.455Z,78.57
2023-04-27T06:59:38.236Z,78.52
2023-04-27T07:00:41.040Z,78.46
2023-04-27T07:01:43.165Z,78.33
2023-04-27T07:02:45.536Z,78.31
2023-04-27T07:03:48.529Z,78.52
2023-04-27T07:04:50.897Z,78.69
2023-04-27T07:05:53.131Z,78.55
2023-04-27T07:06:56.023Z,78.34
2023-04-27T07:07:58.939Z,78.12
2023-04-27T07:09:06.023Z,78.31
2023-04-27T07:10:08.168Z,78.30
2023-04-27T07:11:10.368Z,78.66
2023-04-27T07:12:12.648Z,78.88
2023-04-27T07:13:15.165Z,78.96
2023-04-27T07:14:17.480Z,79.22
2023-04-27T07:15:19.649Z,79.22
2023-04-27T07:16:21.885Z,79.16
2023-04-27T07:17:24.123Z,79.07
2023-04-27T07:18:26.959Z,79.02
2023-04-27T07:19:29.739Z,78.80
2023-04-27T07:20:32.255Z,78.66
2023-04-27T07:21:34.309Z,78.45
2023-04-27T07:22:36.907Z,78.54
2023-04-27T07:23:40.483Z,78.33
2023-04-27T07:24:42.750Z,78.10
2023-04-27T07:25:45.002Z,78.21
2023-04-27T07:26:47.386Z,78.53
2023-04-27T07:27:49.725Z,78.82
2023-04-27T07:28:51.785Z,78.88
2023-04-27T07:29:53.962Z,78.75
2023-04-27T07:30:56.125Z,78.74
2023-04-27T07:31:58.722Z,78.58
2023-04-27T07:33:01.242Z,78.79
2023-04-27T07:34:03.626Z,78.71
2023-04-27T07:35:06.264Z,78.36
2023-04-27T07:36:08.932Z,78.47
2023-04-27T07:37:12.193Z,78.63
2023-04-27T07:38:14.700Z,78.55
2023-04-27T07:39:17.232Z,78.70
2023-04-27T07:40:19.425Z,78.91
2023-04-27T07:41:21.962Z,78.93
2023-04-27T07:42:24.685Z,78.98
2023-04-27T07:43:27.552Z,79.21
2023-04-27T07:44:31.501Z,79.49
2023-04-27T07:45:34.347Z,79.62
2023-04-27T07:46:36.919Z,79.18
2023-04-27T07:47:39.282Z,78.88
2023-04-27T07:48:41.564Z,78.83
2023-04-27T07:49:44.640Z,78.67
2023-04-27T07:50:47.079Z,78.79
2023-04-27T07:51:49.129Z,79.08
2023-04-27T07:52:53.077Z,79.11
2023-04-27T07:53:55.797Z,78.93
2023-04-27T07:54:58.495Z,78.80
2023-04-27T07:56:01.168Z,78.90
2023-04-27T07:57:15.399Z,79.00
2023-04-27T07:58:18.085Z,78.97
2023-04-27T07:59:20.320Z,78.98
2023-04-27T08:00:23.314Z,78.80
2023-04-27T08:01:25.583Z,78.89
2023-04-27T08:02:28.159Z,79.04
2023-04-27T08:03:31.480Z,79.19
2023-04-27T08:04:34.601Z,78.81
2023-04-27T08:05:38.434Z,78.76
2023-04-27T08:06:42.204Z,78.78
2023-04-27T08:07:45.918Z,78.48
2023-04-27T08:08:48.537Z,78.30
2023-04-27T08:09:51.109Z,78.33
2023-04-27T08:10:53.366Z,77.72
2023-04-27T08:11:57.273Z,77.85
2023-04-27T08:13:00.109Z,77.86
2023-04-27T08:14:02.420Z,77.80
2023-04-27T08:15:08.711Z,77.66
2023-04-27T08:16:13.010Z,77.79
2023-04-27T08:17:15.648Z,77.83
2023-04-27T08:18:18.840Z,77.92
2023-04-27T08:19:21.077Z,77.57
2023-04-27T08:20:23.038Z,78.00
2023-04-27T08:21:25.187Z,78.30
2023-04-27T08:22:27.371Z,78.03
2023-04-27T08:23:31.840Z,77.92
2023-04-27T08:24:34.067Z,77.77
2023-04-27T08:25:36.133Z,77.86
2023-04-27T08:26:40.976Z,77.80
2023-04-27T08:27:43.795Z,77.82
2023-04-27T08:28:46.017Z,77.64
2023-04-27T08:29:48.727Z,77.70
2023-04-27T08:30:51.544Z,77.60
2023-04-27T08:31:56.310Z,77.48
2023-04-27T08:32:58.329Z,77.41
2023-04-27T08:34:00.726Z,77.30
2023-04-27T08:35:03.047Z,77.76
2023-04-27T08:36:06.367Z,77.54
2023-04-27T08:37:08.766Z,77.67
2023-04-27T08:38:11.245Z,78.00
2023-04-27T08:39:13.577Z,77.83
2023-04-27T08:40:16.847Z,77.93
2023-04-27T08:41:24.097Z,77.82
2023-04-27T08:42:26.318Z,78.25
2023-04-27T08:43:34.312Z,78.53
2023-04-27T08:44:41.867Z,78.58
2023-04-27T08:45:48.721Z,78.96
2023-04-27T08:46:51.697Z,78.64
2023-04-27T08:47:54.594Z,78.64
2023-04-27T08:48:59.849Z,78.86
2023-04-27T08:50:04.294Z,78.94
2023-04-27T08:51:10.572Z,79.03
2023-04-27T08:52:14.674Z,79.35
2023-04-27T08:53:18.289Z,79.34
2023-04-27T08:54:20.543Z,79.18
2023-04-27T08:55:23.705Z,78.88
2023-04-27T08:56:28.368Z,79.09
2023-04-27T08:57:30.549Z,79.45
2023-04-27T08:58:36.862Z,79.85
2023-04-27T08:59:39.918Z,79.76
2023-04-27T09:00:43.920Z,79.37
2023-04-27T09:01:47.483Z,78.89
2023-04-27T09:02:49.995Z,78.62
2023-04-27T09:03:57.357Z,78.51
2023-04-27T09:04:59.876Z,78.53
2023-04-27T09:06:06.325Z,78.26
2023-04-27T09:07:16.419Z,77.94
2023-04-27T09:08:18.559Z,78.22
2023-04-27T09:09:24.581Z,78.47
2023-04-27T09:10:27.013Z,78.72
2023-04-27T09:11:32.906Z,78.52
2023-04-27T09:12:35.583Z,78.49
2023-04-27T09:13:38.993Z,78.66
2023-04-27T09:14:41.798Z,78.62
2023-04-27T09:15:48.392Z,78.74
2023-04-27T09:16:55.046Z,79.34
2023-04-27T09:17:57.399Z,79.57
2023-04-27T09:18:59.606Z,79.73
2023-04-27T09:20:07.339Z,79.73
2023-04-27T09:21:09.956Z,79.68
2023-04-27T09:22:13.010Z,79.67
2023-04-27T09:23:31.331Z,79.32
2023-04-27T09:24:33.723Z,79.28
2023-04-27T09:25:36.484Z,79.20
2023-04-27T09:26:40.172Z,79.05
2023-04-27T09:27:44.060Z,78.93
2023-04-27T09:28:49.226Z,78.64
2023-04-27T09:29:51.961Z,78.52
2023-04-27T09:30:56.582Z,78.60
2023-04-27T09:31:59.411Z,78.76
2023-04-27T09:33:01.692Z,78.69
2023-04-27T09:34:04.029Z,78.49
2023-04-27T09:36:20.262Z,78.23
2023-04-27T09:37:23.119Z,78.23
2023-04-27T09:38:25.395Z,78.21
2023-04-27T09:39:28.652Z,78.14
2023-04-27T09:40:31.504Z,78.22
2023-04-27T09:41:35.149Z,78.07
2023-04-27T09:42:38.797Z,77.81
2023-04-27T09:43:43.452Z,78.19
2023-04-27T09:44:46.135Z,78.54
2023-04-27T09:45:49.206Z,78.50
2023-04-27T09:46:55.145Z,78.51
2023-04-27T09:47:57.931Z,78.78
2023-04-27T09:49:02.613Z,78.73
2023-04-27T09:50:06.061Z,78.50
2023-04-27T09:51:08.558Z,78.83
2023-04-27T09:52:11.362Z,79.03
2023-04-27T09:53:17.834Z,78.79
2023-04-27T09:54:24.083Z,78.79
2023-04-27T09:58:43.254Z,79.27
2023-04-27T09:59:55.117Z,78.92
2023-04-27T10:01:07.657Z,78.15
2023-04-27T10:02:24.123Z,78.11
2023-04-27T10:03:21.782Z,78.04
2023-04-27T10:04:55.526Z,78.23
2023-04-27T10:06:27.300Z,77.85
2023-04-27T10:07:31.605Z,77.33
2023-04-27T10:08:35.949Z,77.63
2023-04-27T10:09:43.991Z,77.45
2023-04-27T10:10:50.083Z,77.77
2023-04-27T10:11:54.574Z,77.87
2023-04-27T10:12:59.277Z,77.40
2023-04-27T10:14:05.663Z,77.38
2023-04-27T10:15:15.474Z,77.11
2023-04-27T10:16:18.679Z,77.32
2023-04-27T10:17:27.316Z,77.27
2023-04-27T10:18:30.584Z,77.54
2023-04-27T10:19:33.230Z,77.80
2023-04-27T10:20:36.876Z,77.86
2023-04-27T10:23:03.971Z,77.39
2023-04-27T10:24:07.815Z,77.32
2023-04-27T10:25:32.104Z,77.01
2023-04-27T10:26:36.040Z,77.07
2023-04-27T10:27:39.229Z,76.77
2023-04-27T10:28:41.468Z,77.10
2023-04-27T10:29:45.888Z,76.74
2023-04-27T10:30:49.702Z,76.71
2023-04-27T10:31:52.572Z,76.57
2023-04-27T10:32:57.111Z,76.56
2023-04-27T10:34:11.286Z,76.69
2023-04-27T10:35:13.955Z,76.52
2023-04-27T10:36:16.631Z,76.86
2023-04-27T10:37:18.811Z,76.55
2023-04-27T10:38:23.964Z,76.62
2023-04-27T10:39:43.702Z,76.49
2023-04-27T10:40:35.519Z,76.59
2023-04-27T10:41:37.925Z,76.53
2023-04-27T10:42:42.188Z,77.01
2023-04-27T10:43:44.974Z,77.38
2023-04-27T10:44:50.699Z,77.19
2023-04-27T10:45:53.176Z,76.89
2023-04-27T10:46:58.110Z,76.73
2023-04-27T10:48:01.575Z,76.65
2023-04-27T10:49:05.166Z,76.61
2023-04-27T10:50:09.101Z,76.56
2023-04-27T10:51:17.848Z,76.50
2023-04-27T10:52:20.267Z,76.79
2023-04-27T10:53:22.792Z,76.68
2023-04-27T10:54:27.185Z,76.61
2023-04-27T10:55:30.187Z,76.25
2023-04-27T10:56:33.302Z,76.53
2023-04-27T10:57:39.084Z,76.44
2023-04-27T10:58:49.076Z,76.67
2023-04-27T10:59:53.256Z,76.93
2023-04-27T11:00:55.858Z,77.08
2023-04-27T11:01:58.675Z,77.21
2023-04-27T11:03:15.950Z,77.18
2023-04-27T11:04:18.765Z,77.18
2023-04-27T11:05:24.242Z,76.88
2023-04-27T11:06:28.403Z,76.93
2023-04-27T11:07:30.536Z,77.11
2023-04-27T11:08:32.709Z,77.19
2023-04-27T11:09:39.392Z,76.96
2023-04-27T11:10:48.633Z,77.11
2023-04-27T11:11:50.915Z,77.38
2023-04-27T11:12:54.464Z,77.37
2023-04-27T11:13:57.727Z,77.83
2023-04-27T11:15:00.956Z,77.48
2023-04-27T11:16:04.540Z,77.19
2023-04-27T11:17:06.832Z,77.17
2023-04-27T11:18:09.622Z,77.04
2023-04-27T11:19:11.932Z,76.36
2023-04-27T11:20:16.379Z,76.18
2023-04-27T11:21:19.708Z,76.05
2023-04-27T11:22:22.174Z,76.10
2023-04-27T11:23:26.603Z,76.12
2023-04-27T11:24:29.359Z,76.23
2023-04-27T11:25:32.157Z,75.98
2023-04-27T11:26:35.119Z,75.80
2023-04-27T11:27:39.158Z,75.89
2023-04-27T11:29:53.328Z,76.57
2023-04-27T11:30:57.888Z,76.77
2023-04-27T11:32:00.750Z,76.85
2023-04-27T11:33:07.124Z,76.86
2023-04-27T11:34:13.802Z,76.92
2023-04-27T11:35:17.669Z,77.10
2023-04-27T11:36:22.180Z,76.75
2023-04-27T11:37:26.848Z,76.50
2023-04-27T11:38:34.784Z,76.39
2023-04-27T11:39:38.487Z,75.75
2023-04-27T11:40:40.575Z,76.05
2023-04-27T11:41:43.271Z,76.19
2023-04-27T11:42:45.414Z,76.47
2023-04-27T11:43:47.571Z,76.68
2023-04-27T11:44:58.427Z,76.37
2023-04-27T11:46:04.433Z,76.30
2023-04-27T11:47:06.791Z,76.30
2023-04-27T11:48:14.845Z,76.59
2023-04-27T11:49:17.652Z,77.02
2023-04-27T11:50:24.213Z,76.93
2023-04-27T11:51:28.632Z,76.95
2023-04-27T11:52:38.438Z,77.01
2023-04-27T11:53:41.225Z,77.27
2023-04-27T11:54:52.016Z,77.45
2023-04-27T11:55:54.210Z,77.42
2023-04-27T11:57:05.106Z,77.55
2023-04-27T11:58:16.771Z,77.64
2023-04-27T11:59:21.355Z,77.37
2023-04-27T12:00:24.170Z,76.87
2023-04-27T12:01:36.884Z,77.01
2023-04-27T12:02:31.723Z,77.04
2023-04-27T12:03:34.662Z,76.95
2023-04-27T12:04:37.858Z,76.88
2023-04-27T12:07:06.272Z,76.77
2023-04-27T12:08:08.942Z,76.95
2023-04-27T12:09:47.576Z,77.08
2023-04-27T12:10:50.230Z,77.24
2023-04-27T12:11:52.809Z,77.02
2023-04-27T12:12:54.984Z,76.75
2023-04-27T12:13:57.719Z,76.78
2023-04-27T12:14:59.657Z,76.80
2023-04-27T12:16:02.482Z,76.85
2023-04-27T12:17:04.701Z,76.99
2023-04-27T12:18:07.199Z,77.25
2023-04-27T12:19:09.469Z,77.16
2023-04-27T12:20:13.341Z,77.17
2023-04-27T12:21:16.347Z,76.85
2023-04-27T12:22:18.688Z,76.77
2023-04-27T12:23:20.881Z,76.93
2023-04-27T12:24:23.378Z,77.01
2023-04-27T12:25:25.671Z,77.05
2023-04-27T12:26:28.507Z,77.14
2023-04-27T12:27:30.784Z,77.34
2023-04-27T12:28:33.746Z,77.31
2023-04-27T12:29:36.859Z,77.49
2023-04-27T12:30:39.256Z,77.44
2023-04-27T12:31:49.800Z,77.26
2023-04-27T12:32:55.924Z,77.03
2023-04-27T12:33:59.133Z,77.09
2023-04-27T12:35:03.369Z,77.17
2023-04-27T12:36:06.460Z,76.99
2023-04-27T12:37:09.231Z,77.04
2023-04-27T12:38:11.353Z,77.21
2023-04-27T12:39:19.885Z,77.06
2023-04-27T12:40:22.214Z,77.19
2023-04-27T12:41:30.541Z,77.12
2023-04-27T12:42:33.402Z,77.36
2023-04-27T12:43:35.851Z,77.29
2023-04-27T12:44:38.003Z,77.28
2023-04-27T12:45:40.224Z,77.17
2023-04-27T12:46:43.837Z,77.31
2023-04-27T12:48:01.893Z,77.36
2023-04-27T12:48:53.396Z,77.16
2023-04-27T12:49:58.580Z,77.17
2023-04-27T12:51:01.981Z,77.11
2023-04-27T12:52:04.415Z,76.80
2023-04-27T12:53:06.622Z,76.68
2023-04-27T12:54:10.502Z,76.64
2023-04-27T12:55:24.899Z,76.79
2023-04-27T12:56:16.956Z,76.81
2023-04-27T12:57:19.138Z,76.88
2023-04-27T12:58:21.909Z,77.09
2023-04-27T12:59:24.164Z,77.23
2023-04-27T13:00:26.464Z,77.31
2023-04-27T13:01:28.847Z,77.37
2023-04-27T13:02:31.235Z,77.02
2023-04-27T13:03:34.825Z,77.10
2023-04-27T13:04:43.536Z,76.94
2023-04-27T13:05:51.069Z,76.80
2023-04-27T13:06:55.911Z,76.91
2023-04-27T13:07:58.582Z,77.15
2023-04-27T13:10:16.143Z,77.12
2023-04-27T13:11:18.437Z,76.73
2023-04-27T13:12:21.293Z,76.65
2023-04-27T13:13:23.992Z,76.95
2023-04-27T13:14:26.286Z,77.06
2023-04-27T13:15:28.960Z,76.94
2023-04-27T13:16:31.621Z,76.80
2023-04-27T13:17:33.886Z,76.89
2023-04-27T13:18:36.643Z,76.79
2023-04-27T13:19:38.756Z,76.74
2023-04-27T13:20:50.094Z,76.80
2023-04-27T13:21:52.992Z,76.73
2023-04-27T13:22:55.058Z,76.91
2023-04-27T13:24:00.167Z,77.15
2023-04-27T13:25:01.960Z,77.40
2023-04-27T13:26:04.772Z,77.60
2023-04-27T13:27:08.184Z,77.60
2023-04-27T13:29:37.641Z,77.35
2023-04-27T13:30:40.531Z,77.33
2023-04-27T13:31:43.196Z,77.26
2023-04-27T13:32:45.467Z,77.28
2023-04-27T13:36:46.440Z,76.79
2023-04-27T13:37:52.436Z,76.98
2023-04-27T13:38:59.733Z,76.99
2023-04-27T13:40:06.356Z,76.97
2023-04-27T13:41:10.884Z,76.91
2023-04-27T13:42:14.263Z,76.76
2023-04-27T13:43:16.703Z,76.72
2023-04-27T13:44:19.385Z,76.74
2023-04-27T13:45:21.434Z,76.66
2023-04-27T13:47:34.672Z,76.62
2023-04-27T13:48:36.828Z,76.60
2023-04-27T13:49:39.438Z,76.78
2023-04-27T13:50:41.533Z,76.89
2023-04-27T13:51:44.097Z,76.76
2023-04-27T13:52:46.675Z,76.73
2023-04-27T13:53:48.832Z,76.70